Map

Track Data

SID SEASON NUMBER BASIN SUBBASIN NAME ISO_TIME NATURE LAT LON WMO_WIND WMO_PRES WMO_AGENCY TRACK_TYPE DIST2LAND LANDFALL IFLAG USA_AGENCY USA_ATCF_ID USA_LAT USA_LON USA_RECORD USA_STATUS USA_WIND USA_PRES USA_SSHS USA_R34_NE USA_R34_SE USA_R34_SW USA_R34_NW USA_R50_NE USA_R50_SE USA_R50_SW USA_R50_NW USA_R64_NE USA_R64_SE USA_R64_SW USA_R64_NW USA_POCI USA_ROCI USA_RMW USA_EYE TOKYO_LAT TOKYO_LON TOKYO_GRADE TOKYO_WIND TOKYO_PRES TOKYO_R50_DIR TOKYO_R50_LONG TOKYO_R50_SHORT TOKYO_R30_DIR TOKYO_R30_LONG TOKYO_R30_SHORT TOKYO_LAND CMA_LAT CMA_LON CMA_CAT CMA_WIND CMA_PRES HKO_LAT HKO_LON HKO_CAT HKO_WIND HKO_PRES NEWDELHI_LAT NEWDELHI_LON NEWDELHI_GRADE NEWDELHI_WIND NEWDELHI_PRES NEWDELHI_CI NEWDELHI_DP NEWDELHI_POCI REUNION_LAT REUNION_LON REUNION_TYPE REUNION_WIND REUNION_PRES REUNION_TNUM REUNION_CI REUNION_RMW REUNION_R34_NE REUNION_R34_SE REUNION_R34_SW REUNION_R34_NW REUNION_R50_NE REUNION_R50_SE REUNION_R50_SW REUNION_R50_NW REUNION_R64_NE REUNION_R64_SE REUNION_R64_SW REUNION_R64_NW BOM_LAT BOM_LON BOM_TYPE BOM_WIND BOM_PRES BOM_TNUM BOM_CI BOM_RMW BOM_R34_NE BOM_R34_SE BOM_R34_SW BOM_R34_NW BOM_R50_NE BOM_R50_SE BOM_R50_SW BOM_R50_NW BOM_R64_NE BOM_R64_SE BOM_R64_SW BOM_R64_NW BOM_ROCI BOM_POCI BOM_EYE BOM_POS_METHOD BOM_PRES_METHOD NADI_LAT NADI_LON NADI_CAT NADI_WIND NADI_PRES WELLINGTON_LAT WELLINGTON_LON WELLINGTON_WIND WELLINGTON_PRES DS824_LAT DS824_LON DS824_STAGE DS824_WIND DS824_PRES TD9636_LAT TD9636_LON TD9636_STAGE TD9636_WIND TD9636_PRES TD9635_LAT TD9635_LON TD9635_WIND TD9635_PRES TD9635_ROCI NEUMANN_LAT NEUMANN_LON NEUMANN_CLASS NEUMANN_WIND NEUMANN_PRES MLC_LAT MLC_LON MLC_CLASS MLC_WIND MLC_PRES USA_GUST BOM_GUST BOM_GUST_PER REUNION_GUST REUNION_GUST_PER USA_SEAHGT USA_SEARAD_NE USA_SEARAD_SE USA_SEARAD_SW USA_SEARAD_NW STORM_SPEED STORM_DIR
1985157N16259 1985 40 EP MM ANDRES 1985-06-05 18:00:00 TS 15.7000 -100.600 35 hurdat_epa main 147 147 O_________O___ hurdat_epa EP011985 15.7000 -100.600 TS 35 0 15.7000 -100.600 2 35 11 287
1985157N16259 1985 40 EP MM ANDRES 1985-06-05 21:00:00 TS 15.8596 -101.129 main 148 148 P_________P___ EP011985 15.8601 -101.125 TS 37 0 15.8579 -101.143 2 37 11 286
1985157N16259 1985 40 EP MM ANDRES 1985-06-06 00:00:00 TS 16.0000 -101.700 40 hurdat_epa main 158 158 O_________O___ hurdat_epa EP011985 16.0000 -101.700 TS 40 0 16.0000 -101.700 2 40 12 282
1985157N16259 1985 40 EP MM ANDRES 1985-06-06 03:00:00 TS 16.1097 -102.333 main 185 185 P_________P___ EP011985 16.1076 -102.350 TS 40 0 16.1160 -102.281 2 40 12 279
1985157N16259 1985 40 EP MM ANDRES 1985-06-06 06:00:00 TS 16.2033 -102.970 40 hurdat_epa main 204 204 O_________P___ hurdat_epa EP011985 16.2000 -103.000 TS 40 0 16.2133 -102.880 2 40 12 279
1985157N16259 1985 40 EP MM ANDRES 1985-06-06 09:00:00 TS 16.2951 -103.541 main 211 211 P_________P___ EP011985 16.2922 -103.558 TS 40 0 16.3040 -103.489 2 40 11 280
1985157N16259 1985 40 EP MM ANDRES 1985-06-06 12:00:00 TS 16.4000 -104.100 40 hurdat_epa main 221 218 O_________O___ hurdat_epa EP011985 16.4000 -104.100 TS 40 0 16.4000 -104.100 2 40 11 283
1985157N16259 1985 40 EP MM ANDRES 1985-06-06 15:00:00 TS 16.5456 -104.685 main 238 228 P_________P___ EP011985 16.5499 -104.692 TS 45 0 16.5327 -104.663 2 42 12 284
1985157N16259 1985 40 EP MM ANDRES 1985-06-06 18:00:00 TS 16.6926 -105.283 50 hurdat_epa main 261 261 O_________P___ hurdat_epa EP011985 16.7000 -105.300 TS 50 0 16.6705 -105.232 2 45 12 283
1985157N16259 1985 40 EP MM ANDRES 1985-06-06 21:00:00 TS 16.7992 -105.867 main 292 292 P_________P___ EP011985 16.7996 -105.878 TS 50 0 16.7981 -105.835 2 47 12 280
1985157N16259 1985 40 EP MM ANDRES 1985-06-07 00:00:00 TS 16.9000 -106.500 50 hurdat_epa main 313 313 O_________O___ hurdat_epa EP011985 16.9000 -106.500 TS 50 0 16.9000 -106.500 2 50 13 281
1985157N16259 1985 40 EP MM ANDRES 1985-06-07 03:00:00 TS 17.0597 -107.232 main 345 345 P_________P___ EP011985 17.0797 -107.205 TS 52 0 16.9999 -107.312 2 52 15 280
1985157N16259 1985 40 EP MM ANDRES 1985-06-07 06:00:00 TS 17.1662 -108.045 55 hurdat_epa main 399 399 O_________P___ hurdat_epa EP011985 17.2000 -108.000 TS 55 0 17.0647 -108.179 2 55 17 273
1985157N16259 1985 40 EP MM ANDRES 1985-06-07 09:00:00 TS 17.1327 -108.956 main 486 486 P_________P___ EP011985 17.1530 -108.930 TS 57 0 17.0718 -109.031 2 57 17 264
1985157N16259 1985 40 EP MM ANDRES 1985-06-07 12:00:00 TS 17.0000 -109.800 60 hurdat_epa main 562 562 O_________O___ hurdat_epa EP011985 17.0000 -109.800 TS 60 0 17.0000 -109.800 2 60 14 258
1985157N16259 1985 40 EP MM ANDRES 1985-06-07 15:00:00 TS 16.8341 -110.422 main 628 628 P_________P___ EP011985 16.8294 -110.417 TS 52 0 16.8481 -110.435 2 55 11 250
1985157N16259 1985 40 EP MM ANDRES 1985-06-07 18:00:00 TS 16.6047 -110.918 45 hurdat_epa main 685 685 O_________P___ hurdat_epa EP011985 16.6000 -110.900 TS 45 0 16.6186 -110.973 2 50 11 242
1985157N16259 1985 40 EP MM ANDRES 1985-06-07 21:00:00 TS 16.3299 -111.397 main 748 748 P_________P___ EP011985 16.3299 -111.387 TS 42 0 16.3299 -111.425 2 45 10 234
1985157N16259 1985 40 EP MM ANDRES 1985-06-08 00:00:00 TS 16.0000 -111.800 40 hurdat_epa main 794 794 O_________O___ hurdat_epa EP011985 16.0000 -111.800 TS 40 0 16.0000 -111.800 2 40 10 225
1985157N16259 1985 40 EP MM ANDRES 1985-06-08 03:00:00 TS 15.6115 -112.132 main 845 845 P_________P___ EP011985 15.6074 -112.137 TS 35 0 15.6237 -112.117 2 36 10 216
1985157N16259 1985 40 EP MM ANDRES 1985-06-08 06:00:00 TS 15.2048 -112.392 30 hurdat_epa main 897 897 O_________P___ hurdat_epa EP011985 15.2000 -112.400 TD 30 -1 15.2192 -112.367 2 32 9 210
1985157N16259 1985 40 EP MM ANDRES 1985-06-08 09:00:00 TS 14.8225 -112.601 main 946 946 P_________P___ EP011985 14.8199 -112.607 TD 27 -1 14.8301 -112.583 2 28 8 209
1985157N16259 1985 40 EP MM ANDRES 1985-06-08 12:00:00 TS 14.5000 -112.800 25 hurdat_epa main 984 984 O_________O___ hurdat_epa EP011985 14.5000 -112.800 TD 25 -1 14.5000 -112.800 1 25 7 217
1985157N16259 1985 40 EP MM ANDRES 1985-06-08 15:00:00 TS 14.2610 -113.041 main 1012 1012 P_________P___ EP011985 14.2625 -113.035 TD 27 -1 14.2568 -113.059 1 26 6 230
1985157N16259 1985 40 EP MM ANDRES 1985-06-08 18:00:00 TS 14.0950 -113.307 30 hurdat_epa main 1044 1044 O_________P___ hurdat_epa EP011985 14.1000 -113.300 TD 30 -1 14.0798 -113.327 1 27 6 241
1985157N16259 1985 40 EP MM ANDRES 1985-06-08 21:00:00 TS 13.9682 -113.596 main 1065 1065 P_________P___ EP011985 13.9700 -113.592 TD 30 -1 13.9630 -113.606 1 28 6 251
1985157N16259 1985 40 EP MM ANDRES 1985-06-09 00:00:00 TS 13.9000 -113.900 30 hurdat_epa main 1087 1087 O_________O___ hurdat_epa EP011985 13.9000 -113.900 TD 30 -1 13.9000 -113.900 1 30 6 260
1985157N16259 1985 40 EP MM ANDRES 1985-06-09 03:00:00 TS 13.8655 -114.192 main 1099 1099 P_________P___ EP011985 13.8774 -114.192 TD 30 -1 13.8298 -114.191 1 30 6 268
1985157N16259 1985 40 EP MM ANDRES 1985-06-09 06:00:00 TS 13.8787 -114.500 30 hurdat_epa main 1112 1112 O_________P___ hurdat_epa EP011985 13.9000 -114.500 TD 30 -1 13.8146 -114.498 1 30 6 273
1985157N16259 1985 40 EP MM ANDRES 1985-06-09 09:00:00 TS 13.9011 -114.834 main 1126 1126 P_________P___ EP011985 13.9124 -114.835 TD 30 -1 13.8672 -114.832 1 30 7 280
1985157N16259 1985 40 EP MM ANDRES 1985-06-09 12:00:00 TS 14.0000 -115.200 30 hurdat_epa main 1136 1131 O_________O___ hurdat_epa EP011985 14.0000 -115.200 TD 30 -1 14.0000 -115.200 1 30 8 294
1985157N16259 1985 40 EP MM ANDRES 1985-06-09 15:00:00 TS 14.2189 -115.578 main 1137 1126 P_________P___ EP011985 14.2049 -115.578 TD 30 -1 14.2611 -115.581 1 28 9 304
1985157N16259 1985 40 EP MM ANDRES 1985-06-09 18:00:00 TS 14.5229 -116.000 30 hurdat_epa main 1132 1119 O_________P___ hurdat_epa EP011985 14.5000 -116.000 TD 30 -1 14.5917 -116.001 1 27 11 308
1985157N16259 1985 40 EP MM ANDRES 1985-06-09 21:00:00 TS 14.8802 -116.465 main 1125 1120 P_________P___ EP011985 14.8648 -116.462 TD 27 -1 14.9265 -116.471 1 26 12 305
1985157N16259 1985 40 EP MM ANDRES 1985-06-10 00:00:00 TS 15.2000 -117.000 25 hurdat_epa main 1132 1130 O_________O___ hurdat_epa EP011985 15.2000 -117.000 TD 25 -1 15.2000 -117.000 1 25 12 295
1985157N16259 1985 40 EP MM ANDRES 1985-06-10 03:00:00 TS 15.3911 -117.620 main 1157 1157 P_________P___ EP011985 15.4100 -117.628 TD 25 -1 15.3343 -117.597 1 25 13 282
1985157N16259 1985 40 EP MM ANDRES 1985-06-10 06:00:00 TS 15.4744 -118.287 25 hurdat_epa main 1201 1201 O_________P___ hurdat_epa EP011985 15.5000 -118.300 TD 25 -1 15.3978 -118.248 1 25 13 273
1985157N16259 1985 40 EP MM ANDRES 1985-06-10 09:00:00 TS 15.4629 -118.944 main 1247 1247 P_________P___ EP011985 15.4798 -118.950 TD 25 -1 15.4123 -118.925 1 25 13 267
1985157N16259 1985 40 EP MM ANDRES 1985-06-10 12:00:00 TS 15.4000 -119.600 25 hurdat_epa main 1301 1301 O_________O___ hurdat_epa EP011985 15.4000 -119.600 TD 25 -1 15.4000 -119.600 1 25 13 265
1985157N16259 1985 40 EP MM ANDRES 1985-06-10 15:00:00 TS 15.3528 -120.254 main 1346 1346 P_________P___ EP011985 15.3424 -120.258 TD 27 -1 15.3840 -120.245 1 26 13 266
1985157N16259 1985 40 EP MM ANDRES 1985-06-10 18:00:00 TS 15.3124 -120.895 30 hurdat_epa main 1395 1395 O_________P___ hurdat_epa EP011985 15.3000 -120.900 TD 30 -1 15.3495 -120.881 1 27 12 267
1985157N16259 1985 40 EP MM ANDRES 1985-06-10 21:00:00 TS 15.2924 -121.506 main 1437 1437 P_________P___ EP011985 15.2848 -121.507 TD 30 -1 15.3153 -121.501 1 28 12 269
1985157N16259 1985 40 EP MM ANDRES 1985-06-11 00:00:00 TS 15.3000 -122.100 30 hurdat_epa main 1480 1480 O_________O___ hurdat_epa EP011985 15.3000 -122.100 TD 30 -1 15.3000 -122.100 1 30 12 272
1985157N16259 1985 40 EP MM ANDRES 1985-06-11 03:00:00 TS 15.3388 -122.704 main 1525 1525 P_________P___ EP011985 15.3425 -122.715 TD 27 -1 15.3278 -122.671 1 28 11 275
1985157N16259 1985 40 EP MM ANDRES 1985-06-11 06:00:00 TS 15.3942 -123.281 25 hurdat_epa main 1563 1563 O_________P___ hurdat_epa EP011985 15.4000 -123.300 TD 25 -1 15.3766 -123.222 1 27 11 276
1985157N16259 1985 40 EP MM ANDRES 1985-06-11 09:00:00 TS 15.4466 -123.796 main 1602 1602 P_________P___ EP011985 15.4497 -123.808 TD 25 -1 15.4372 -123.762 1 26 10 276
1985157N16259 1985 40 EP MM ANDRES 1985-06-11 12:00:00 TS 15.5000 -124.300 25 hurdat_epa main 1634 1634 O_________O___ hurdat_epa EP011985 15.5000 -124.300 TD 25 -1 15.5000 -124.300 1 25 10 276
1985157N16259 1985 40 EP MM ANDRES 1985-06-11 15:00:00 TS 15.5498 -124.842 main 1674 1674 P_________P___ EP011985 15.5499 -124.843 TD 25 -1 15.5495 -124.839 1 25 11 275
1985157N16259 1985 40 EP MM ANDRES 1985-06-11 18:00:00 TS 15.5998 -125.395 25 hurdat_epa main 1717 1717 O_________P___ hurdat_epa EP011985 15.6000 -125.400 TD 25 -1 15.5994 -125.380 1 25 11 275
1985157N16259 1985 40 EP MM ANDRES 1985-06-11 21:00:00 TS 15.6497 -125.940 main 1758 1755 P_________P___ EP011985 15.6498 -125.943 TD 25 -1 15.6495 -125.930 1 25 11 275
1985157N16259 1985 40 EP MM ANDRES 1985-06-12 00:00:00 TS 15.7000 -126.500 25 hurdat_epa main 1789 1789 O_________O___ hurdat_epa EP011985 15.7000 -126.500 TD 25 -1 15.7000 -126.500 1 25 11 275
1985157N16259 1985 40 EP MM ANDRES 1985-06-12 03:00:00 TS 15.7504 -127.091 main 1822 1822 P_________P___ EP011985 15.7504 -127.090 TD 25 -1 15.7504 -127.093 1 25 12 275
1985157N16259 1985 40 EP MM ANDRES 1985-06-12 06:00:00 TS 15.8000 -127.700 25 hurdat_epa main 1865 O_________O___ hurdat_epa EP011985 15.8000 -127.700 TD 25 -1 15.8000 -127.700 1 25 12 275

About IBTrACS Database

This database is a web-friendly format of International Best Track Archive for Climate Stewardship (IBTrACS), a global best track data archive curated by NOAA dating back to 1842.

Updated: 2021-11-26